createdAt,value
2024-03-09T00:58:45.705Z,100.00
2024-03-09T01:08:00.835Z,100.00
2024-03-09T01:24:06.762Z,100.00
2024-03-09T01:27:24.545Z,100.00
2024-03-09T01:33:38.222Z,100.00
2024-03-09T01:43:24.302Z,100.00
2024-03-09T01:49:52.848Z,100.00
2024-03-09T01:52:44.569Z,100.00
2024-03-09T01:55:51.753Z,100.00
2024-03-09T02:02:31.127Z,100.00
2024-03-09T02:05:40.844Z,100.00
2024-03-09T02:09:07.061Z,100.00
2024-03-09T02:12:16.007Z,100.00
2024-03-09T02:15:07.053Z,100.00
2024-03-09T02:17:57.544Z,100.00
2024-03-09T02:24:14.780Z,100.00
2024-03-09T02:27:13.406Z,100.00
2024-03-09T02:30:42.182Z,100.00
2024-03-09T02:37:24.104Z,100.00
2024-03-09T02:40:16.397Z,100.00
2024-03-09T02:43:30.507Z,100.00
2024-03-09T02:49:30.727Z,100.00
2024-03-09T02:55:27.301Z,100.00
2024-03-09T02:58:20.482Z,100.00
2024-03-09T03:01:12.192Z,100.00
2024-03-09T03:04:01.210Z,100.00
2024-03-09T03:07:15.207Z,100.00
2024-03-09T03:10:03.658Z,100.00
2024-03-09T03:13:00.462Z,100.00
2024-03-09T03:16:25.739Z,100.00
2024-03-09T03:19:25.997Z,100.00
2024-03-09T03:26:06.062Z,100.00
2024-03-09T03:29:29.869Z,100.00
2024-03-09T03:32:28.860Z,100.00
2024-03-09T03:35:29.906Z,100.00
2024-03-09T03:38:08.741Z,100.00
2024-03-09T03:40:54.237Z,100.00
2024-03-09T03:43:34.218Z,100.00
2024-03-09T03:46:44.208Z,100.00
2024-03-09T03:49:42.523Z,100.00
2024-03-09T03:52:30.554Z,100.00
2024-03-09T03:55:28.124Z,100.00
2024-03-09T03:58:29.148Z,100.00
2024-03-09T04:03:50.505Z,100.00
2024-03-09T04:06:55.054Z,100.00
2024-03-09T04:09:42.980Z,100.00
2024-03-09T04:15:21.398Z,100.00
2024-03-09T04:18:07.750Z,100.00
2024-03-09T04:20:45.089Z,100.00
2024-03-09T04:23:34.854Z,100.00
2024-03-09T04:26:18.531Z,100.00
2024-03-09T04:28:57.394Z,100.00
2024-03-09T04:31:47.341Z,100.00
2024-03-09T04:34:25.706Z,100.00
2024-03-09T04:37:12.052Z,100.00
2024-03-09T04:40:03.791Z,100.00
2024-03-09T04:42:35.977Z,100.00
2024-03-09T04:45:17.001Z,100.00
2024-03-09T04:47:55.007Z,100.00
2024-03-09T04:50:43.726Z,100.00
2024-03-09T04:53:25.476Z,100.00
2024-03-09T04:56:03.989Z,100.00
2024-03-09T04:58:40.210Z,100.00
2024-03-09T05:01:18.531Z,100.00
2024-03-09T05:03:57.032Z,100.00
2024-03-09T05:06:43.316Z,100.00
2024-03-09T05:09:27.361Z,100.00
2024-03-09T05:12:10.621Z,100.00
2024-03-09T05:14:50.288Z,100.00
2024-03-09T05:17:32.824Z,100.00
2024-03-09T05:20:35.550Z,100.00
2024-03-09T05:23:15.208Z,100.00
2024-03-09T05:26:01.520Z,100.00
2024-03-09T05:28:48.752Z,100.00
2024-03-09T05:31:34.614Z,100.00
2024-03-09T05:34:20.786Z,100.00
2024-03-09T05:37:07.757Z,100.00
2024-03-09T05:40:12.331Z,100.00
2024-03-09T05:42:58.239Z,100.00
2024-03-09T05:45:40.082Z,100.00
2024-03-09T05:48:15.892Z,100.00
2024-03-09T05:51:00.661Z,100.00
2024-03-09T05:53:40.180Z,100.00
2024-03-09T05:56:19.536Z,100.00
2024-03-09T05:59:09.802Z,100.00
2024-03-09T06:01:50.766Z,100.00
2024-03-09T06:04:32.998Z,100.00
2024-03-09T06:07:15.399Z,100.00
2024-03-09T06:10:03.901Z,100.00
2024-03-09T06:12:53.053Z,100.00
2024-03-09T06:15:39.681Z,100.00
2024-03-09T06:18:26.859Z,100.00
2024-03-09T06:21:14.470Z,100.00
2024-03-09T06:23:58.230Z,100.00
2024-03-09T06:26:45.580Z,100.00
2024-03-09T06:29:29.521Z,100.00
2024-03-09T06:32:46.003Z,100.00
2024-03-09T06:38:41.622Z,100.00
2024-03-09T06:44:52.262Z,100.00
2024-03-09T06:47:53.592Z,100.00
2024-03-09T06:50:48.713Z,100.00
2024-03-09T06:53:53.502Z,100.00
2024-03-09T06:57:13.443Z,100.00
2024-03-09T07:00:19.708Z,100.00
2024-03-09T07:03:13.582Z,100.00
2024-03-09T07:06:01.795Z,100.00
2024-03-09T07:12:20.693Z,100.00
2024-03-09T07:19:16.027Z,100.00
2024-03-09T09:06:33.192Z,85.59
2024-03-09T09:09:01.702Z,85.30
2024-03-09T09:11:32.975Z,87.64
2024-03-09T09:14:03.350Z,86.11
2024-03-09T09:16:31.347Z,85.03
2024-03-09T09:18:59.930Z,82.82
2024-03-09T09:21:28.105Z,87.47
2024-03-09T09:23:56.350Z,89.47
2024-03-09T09:26:24.245Z,88.59
2024-03-09T09:28:55.180Z,84.05
2024-03-09T09:31:25.385Z,83.38
2024-03-09T09:33:53.660Z,81.67
2024-03-09T09:36:21.554Z,77.55
2024-03-09T09:38:50.259Z,83.81
2024-03-09T09:41:18.565Z,75.37
2024-03-09T09:43:48.997Z,75.09
2024-03-09T09:49:41.807Z,75.30
2024-03-09T09:55:33.089Z,80.43
2024-03-09T09:58:02.279Z,71.12
2024-03-09T10:00:29.961Z,72.16
2024-03-09T10:02:59.914Z,74.20
2024-03-09T10:05:29.919Z,80.93
2024-03-09T10:08:02.623Z,81.10
2024-03-09T10:10:32.209Z,80.22
2024-03-09T10:13:10.298Z,80.24
2024-03-09T10:15:39.656Z,81.09
2024-03-09T10:18:10.919Z,83.31
2024-03-09T10:20:39.462Z,87.65
2024-03-09T10:23:10.229Z,89.63
2024-03-09T10:25:49.383Z,90.67
2024-03-09T10:28:17.423Z,84.38
2024-03-09T10:30:47.237Z,82.29
2024-03-09T10:33:18.252Z,83.07
2024-03-09T10:35:49.386Z,85.00
2024-03-09T10:38:18.530Z,82.17
2024-03-09T10:40:46.327Z,78.74
2024-03-09T10:43:14.682Z,78.57
2024-03-09T10:45:42.697Z,81.45
2024-03-09T10:48:11.886Z,74.07
2024-03-09T10:54:09.438Z,78.35
2024-03-09T10:56:37.631Z,82.56
2024-03-09T10:59:07.196Z,82.11
2024-03-09T11:01:37.300Z,80.37
2024-03-09T11:04:06.025Z,81.50
2024-03-09T11:06:33.537Z,79.20
2024-03-09T11:09:08.864Z,78.76
2024-03-09T11:11:37.504Z,78.01
2024-03-09T11:14:05.281Z,79.48
2024-03-09T11:16:33.608Z,77.70
2024-03-09T11:19:01.785Z,74.29
2024-03-09T11:21:37.408Z,76.67
2024-03-09T11:24:13.346Z,74.07
2024-03-09T11:26:47.454Z,70.12
2024-03-09T11:29:17.657Z,69.64
2024-03-09T11:31:46.638Z,69.53
2024-03-09T11:34:14.925Z,68.79
2024-03-09T11:36:46.181Z,67.05
2024-03-09T11:39:15.308Z,68.16
2024-03-09T11:41:47.825Z,71.08
2024-03-09T11:44:21.829Z,70.63
2024-03-09T11:46:50.237Z,70.64
2024-03-09T11:49:18.003Z,68.78
2024-03-09T11:51:46.854Z,69.96
2024-03-09T11:54:18.250Z,67.06
2024-03-09T11:56:47.416Z,67.81
2024-03-09T11:59:16.891Z,67.83
2024-03-09T12:01:50.701Z,68.71
2024-03-09T12:04:21.938Z,66.88
2024-03-09T12:06:49.405Z,65.52
2024-03-09T12:09:17.676Z,65.77
2024-03-09T12:11:48.079Z,66.99
2024-03-09T12:14:16.870Z,67.95
2024-03-09T12:16:46.497Z,68.49
2024-03-09T12:19:15.982Z,67.95
2024-03-09T12:21:46.957Z,67.74
2024-03-09T12:24:15.449Z,68.25
2024-03-09T12:26:43.251Z,69.17
2024-03-09T12:29:15.497Z,67.22
2024-03-09T12:31:44.333Z,66.47
2024-03-09T12:34:15.028Z,66.85
2024-03-09T12:36:52.745Z,68.12
2024-03-09T12:42:38.047Z,66.11
2024-03-09T12:45:06.896Z,66.42
2024-03-09T12:47:35.081Z,66.27
2024-03-09T12:50:04.934Z,66.22
2024-03-09T12:52:37.173Z,63.94
2024-03-09T12:55:09.888Z,64.62
2024-03-09T12:57:37.881Z,65.06
2024-03-09T13:00:13.479Z,67.44
2024-03-09T13:03:02.535Z,65.93
2024-03-09T13:05:34.667Z,69.58
2024-03-09T13:08:08.689Z,66.02
2024-03-09T13:10:38.517Z,67.35
2024-03-09T13:13:08.007Z,67.45
2024-03-09T13:15:38.898Z,64.37
2024-03-09T13:18:07.498Z,65.01
2024-03-09T13:20:39.308Z,68.16
2024-03-09T13:23:08.173Z,67.08
2024-03-09T13:25:36.345Z,66.72
2024-03-09T13:28:06.241Z,66.80
2024-03-09T13:30:41.070Z,67.35
2024-03-09T13:33:16.426Z,65.52
2024-03-09T13:35:50.883Z,65.98
2024-03-09T13:38:20.907Z,67.84
2024-03-09T13:40:49.009Z,67.64
2024-03-09T13:43:18.308Z,68.30
2024-03-09T13:45:48.996Z,66.47
2024-03-09T13:48:19.604Z,70.41
2024-03-09T13:50:47.654Z,68.23
2024-03-09T13:53:18.792Z,68.07
2024-03-09T13:55:48.869Z,67.57
2024-03-09T13:58:22.251Z,67.53
2024-03-09T14:00:52.279Z,65.45
2024-03-09T14:03:25.010Z,67.72
2024-03-09T14:05:53.041Z,67.87
2024-03-09T14:08:21.533Z,68.01
2024-03-09T14:10:52.093Z,68.09
2024-03-09T14:13:22.538Z,67.68
2024-03-09T14:15:50.704Z,68.35
2024-03-09T14:18:21.692Z,68.37
2024-03-09T14:20:53.450Z,67.40
2024-03-09T14:23:24.409Z,67.43
2024-03-09T14:25:54.137Z,68.12
2024-03-09T14:28:24.224Z,68.33
2024-03-09T14:30:52.081Z,68.45
2024-03-09T14:33:19.912Z,65.39
2024-03-09T14:35:48.055Z,65.16
2024-03-09T14:38:18.081Z,65.53
2024-03-09T14:40:53.355Z,66.38
2024-03-09T14:43:24.837Z,64.36
2024-03-09T14:45:52.852Z,64.73
2024-03-09T14:48:25.278Z,66.41
2024-03-09T14:50:53.137Z,66.59
2024-03-09T14:53:23.505Z,66.83
2024-03-09T14:55:52.494Z,68.12
2024-03-09T14:58:19.815Z,69.51
2024-03-09T15:00:52.860Z,70.86
2024-03-09T15:03:23.775Z,71.85
2024-03-09T15:05:54.747Z,72.66
2024-03-09T15:08:23.519Z,72.42
2024-03-09T15:10:59.807Z,74.62
2024-03-09T15:13:41.830Z,74.69
2024-03-09T15:16:13.414Z,70.00
2024-03-09T15:18:41.958Z,68.10
2024-03-09T15:21:10.333Z,68.56
2024-03-09T15:23:40.942Z,67.72
2024-03-09T15:26:09.769Z,68.27
2024-03-09T15:28:41.390Z,70.26
2024-03-09T15:31:11.251Z,70.44
2024-03-09T15:33:41.175Z,69.56
2024-03-09T15:36:12.550Z,71.24
2024-03-09T15:38:41.649Z,72.49
2024-03-09T15:41:13.072Z,72.98
2024-03-09T15:43:42.441Z,74.25
2024-03-09T15:46:13.907Z,75.02
2024-03-09T15:48:43.126Z,75.73
2024-03-09T15:51:13.898Z,74.96
2024-03-09T15:57:13.896Z,76.28
2024-03-09T15:59:42.628Z,79.37
2024-03-09T16:02:10.439Z,77.83
2024-03-09T16:04:39.462Z,78.89
2024-03-09T16:10:34.011Z,81.72
2024-03-09T16:16:26.134Z,83.90
2024-03-09T16:19:01.211Z,84.09
2024-03-09T16:21:46.053Z,85.78
2024-03-09T16:24:13.764Z,86.44
2024-03-09T16:26:41.260Z,87.47
2024-03-09T16:29:13.147Z,86.54
2024-03-09T16:31:40.968Z,86.16
2024-03-09T16:34:12.527Z,86.83
2024-03-09T16:36:40.029Z,87.84
2024-03-09T16:39:10.732Z,89.06
2024-03-09T16:41:40.663Z,89.38
2024-03-09T16:44:08.425Z,90.40
2024-03-09T16:46:35.865Z,91.32
2024-03-09T16:49:06.738Z,92.21
2024-03-09T16:51:34.524Z,92.45
2024-03-09T16:54:01.865Z,94.73
2024-03-09T16:56:30.290Z,93.42
2024-03-09T16:58:59.924Z,94.03
2024-03-09T17:01:29.426Z,93.85
2024-03-09T17:04:01.258Z,94.05
2024-03-09T17:06:29.658Z,95.35
2024-03-09T17:08:57.267Z,96.91
2024-03-09T17:11:28.044Z,96.60
2024-03-09T17:13:55.804Z,98.06
2024-03-09T17:16:24.963Z,99.34
2024-03-09T17:18:54.899Z,99.75
2024-03-09T17:21:25.691Z,100.00
2024-03-09T17:23:57.686Z,100.00
2024-03-09T17:26:33.984Z,100.00
2024-03-09T17:29:05.025Z,100.00
2024-03-09T17:31:34.457Z,100.00
2024-03-09T17:34:07.953Z,100.00
2024-03-09T17:36:35.665Z,100.00
2024-03-09T17:39:05.498Z,100.00
2024-03-09T17:41:36.740Z,100.00
2024-03-09T17:44:11.770Z,100.00
2024-03-09T17:46:43.046Z,100.00
2024-03-09T17:49:14.380Z,100.00
2024-03-09T17:51:47.897Z,100.00
2024-03-09T17:54:17.760Z,100.00
2024-03-09T17:56:46.258Z,100.00
2024-03-09T17:59:15.792Z,100.00
2024-03-09T18:01:45.846Z,100.00
2024-03-09T18:04:13.522Z,100.00
2024-03-09T18:06:40.821Z,100.00
2024-03-09T18:09:16.864Z,100.00
2024-03-09T18:11:45.414Z,100.00
2024-03-09T18:14:19.835Z,100.00
2024-03-09T18:16:50.978Z,100.00
2024-03-09T18:19:21.591Z,100.00
2024-03-09T18:21:49.310Z,100.00
2024-03-09T18:24:17.287Z,100.00
2024-03-09T18:26:47.027Z,100.00
2024-03-09T18:29:14.816Z,100.00
2024-03-09T18:31:45.172Z,100.00
2024-03-09T18:34:12.983Z,100.00
2024-03-09T18:36:42.888Z,100.00
2024-03-09T18:39:10.600Z,100.00
2024-03-09T18:41:37.998Z,100.00
2024-03-09T18:44:06.022Z,100.00
2024-03-09T18:46:34.225Z,100.00
2024-03-09T18:49:04.477Z,100.00
2024-03-09T18:51:32.383Z,100.00
2024-03-09T18:53:59.952Z,100.00
2024-03-09T18:56:27.433Z,100.00
2024-03-09T18:59:09.876Z,100.00
2024-03-09T19:01:37.737Z,100.00
2024-03-09T19:04:06.335Z,100.00
2024-03-09T19:06:34.365Z,100.00
2024-03-09T19:09:01.685Z,100.00
2024-03-09T19:11:32.491Z,100.00
2024-03-09T19:14:00.190Z,100.00
2024-03-09T19:16:28.221Z,100.00
2024-03-09T19:18:56.382Z,100.00
2024-03-09T19:21:25.790Z,100.00
2024-03-09T19:23:53.790Z,100.00
2024-03-09T19:26:50.390Z,100.00
2024-03-09T19:29:18.775Z,100.00
2024-03-09T19:31:47.236Z,100.00
2024-03-09T19:34:15.180Z,100.00
2024-03-09T19:36:43.364Z,100.00
2024-03-09T19:39:12.222Z,100.00
2024-03-09T19:41:39.705Z,100.00
2024-03-09T19:44:08.895Z,100.00
2024-03-09T19:46:39.479Z,100.00
2024-03-09T19:49:07.875Z,100.00
2024-03-09T19:51:37.275Z,100.00
2024-03-09T19:54:06.431Z,100.00
2024-03-09T19:56:34.851Z,100.00
2024-03-09T20:02:02.737Z,100.00
2024-03-09T20:04:31.208Z,100.00
2024-03-09T20:07:00.772Z,100.00
2024-03-09T20:09:28.616Z,100.00
2024-03-09T20:11:58.124Z,100.00
2024-03-09T20:14:30.180Z,100.00
2024-03-09T20:17:00.161Z,100.00
2024-03-09T20:19:28.537Z,100.00
2024-03-09T20:21:56.609Z,100.00
2024-03-09T20:24:24.973Z,100.00
2024-03-09T20:26:53.385Z,100.00
2024-03-09T20:29:21.492Z,100.00
2024-03-09T20:31:49.910Z,100.00
2024-03-09T20:34:18.742Z,100.00
2024-03-09T20:36:47.015Z,100.00
2024-03-09T20:39:15.973Z,100.00
2024-03-09T20:41:44.406Z,100.00
2024-03-09T20:44:13.877Z,100.00
2024-03-09T20:46:42.950Z,100.00
2024-03-09T20:49:10.937Z,100.00
2024-03-09T20:51:41.762Z,100.00
2024-03-09T20:54:10.634Z,100.00
2024-03-09T20:56:39.943Z,100.00
2024-03-09T20:59:11.128Z,100.00
2024-03-09T21:01:41.653Z,100.00
2024-03-09T21:04:10.343Z,100.00
2024-03-09T21:06:38.876Z,100.00
2024-03-09T21:09:07.343Z,100.00
2024-03-09T21:11:36.965Z,100.00
2024-03-09T21:14:06.254Z,100.00
2024-03-09T21:16:34.809Z,100.00
2024-03-09T21:19:06.945Z,100.00
2024-03-09T21:21:35.321Z,100.00
2024-03-09T21:24:04.316Z,100.00
2024-03-09T21:26:32.281Z,100.00
2024-03-09T21:29:00.371Z,100.00
2024-03-09T21:31:31.144Z,100.00
2024-03-09T21:34:00.895Z,100.00
2024-03-09T21:36:29.040Z,100.00
2024-03-09T21:38:56.845Z,100.00
2024-03-09T21:41:26.061Z,100.00
2024-03-09T21:47:03.508Z,100.00
2024-03-09T21:49:31.971Z,100.00
2024-03-09T21:58:17.471Z,100.00
2024-03-09T22:00:45.074Z,100.00
2024-03-09T22:03:14.041Z,100.00
2024-03-09T22:05:41.649Z,100.00
2024-03-09T22:08:10.790Z,100.00
2024-03-09T22:10:38.555Z,100.00
2024-03-09T22:13:07.666Z,100.00
2024-03-09T22:15:35.270Z,100.00
2024-03-09T22:18:07.054Z,100.00
2024-03-09T22:20:34.740Z,100.00
2024-03-09T22:23:02.233Z,100.00
2024-03-09T22:25:29.900Z,100.00
2024-03-09T22:27:57.210Z,100.00
2024-03-09T22:30:25.144Z,100.00
2024-03-09T22:32:54.354Z,100.00
2024-03-09T22:35:23.976Z,100.00
2024-03-09T22:37:52.721Z,100.00
2024-03-09T22:40:21.822Z,100.00
2024-03-09T22:42:49.380Z,100.00
2024-03-09T22:45:19.226Z,100.00
2024-03-09T22:47:47.433Z,100.00
2024-03-09T22:50:18.400Z,100.00
2024-03-09T22:52:46.797Z,100.00
2024-03-09T22:55:16.404Z,100.00
2024-03-09T22:57:44.823Z,100.00
2024-03-09T23:00:34.922Z,100.00
2024-03-09T23:03:02.919Z,100.00
2024-03-09T23:05:32.382Z,100.00
2024-03-09T23:08:00.510Z,100.00
2024-03-09T23:10:29.927Z,100.00
2024-03-09T23:12:57.537Z,100.00
2024-03-09T23:15:45.789Z,100.00
2024-03-09T23:18:18.803Z,100.00
2024-03-09T23:20:48.481Z,100.00
2024-03-09T23:23:17.277Z,100.00
2024-03-09T23:25:44.592Z,100.00
2024-03-09T23:28:11.889Z,100.00
2024-03-09T23:30:39.463Z,100.00
2024-03-09T23:33:08.003Z,100.00
2024-03-09T23:35:35.892Z,100.00
2024-03-09T23:38:06.657Z,100.00
2024-03-09T23:40:34.315Z,100.00
2024-03-09T23:43:02.088Z,100.00
2024-03-09T23:45:30.027Z,100.00
2024-03-09T23:47:57.353Z,100.00
2024-03-09T23:50:25.353Z,100.00
2024-03-09T23:52:55.038Z,100.00
2024-03-09T23:55:23.304Z,100.00
2024-03-09T23:57:50.744Z,100.00
